Mount Erie, IL

4:32 AM CDT on October 26, 2014 (GMT -0500)
Mount Vernon | Change Station
CLOSE
Current Station
Airport
Location: Mount Vernon,
Elevation: 479 ft
Nearby Weather Stations

Elev 479 ft 38.32 °N, 88.86 °W | Updated 17 minutes ago

Clear
Clear
46 °F
Feels Like 46 °F
N
0
Wind Variable Wind from North
Gusts 1 mph

Today
High -- | Low -- °F
--% Chance of Precip.
Yesterday
High -- | Low -- °F
Precip. -- in
7:13 AM 6:00 PM
Waxing Crescent, 7% visible
Pressure 30.02 in
Visibility 0.8 miles
Clouds
Dew Point 43 °F
Humidity 87%
Rainfall 0.00 in
Snow Depth Not available.
UV Not available.
Pollen 2.00 out of 12
Air Quality Not available.
Flu Activity Not available.
METAR KMVN 260915Z AUTO 00000KT 3/4SM VV005 08/06 A3002 RMK AO1

More Conditions Fewer Conditions

Pressure 30.02 in
Visibility 0.8 miles
Clouds
Dew Point 43 °F
Humidity 87%
Rainfall 0.00 in
Snow Depth Not available.
UV Not available.
Pollen 2.00 out of 12
Air Quality Not available.
Flu Activity Not available.
METAR KMVN 260915Z AUTO 00000KT 3/4SM VV005 08/06 A3002 RMK AO1

More Conditions Fewer Conditions

10-Day Weather Forecast

Almanac

Astronomy

Oct. 26, 2014 Rise Set
Actual Time 7:13 AM CDT 6:00 PM CDT
Civil Twilight 6:46 AM CDT 6:28 PM CDT
Nautical Twilight 6:15 AM CDT 6:59 PM CDT
Astronomical Twilight 5:44 AM CDT 7:29 PM CDT
Moon 9:50 AM CDT 8:13 PM CDT
Length of Visible Light 11h 41m
Length of Day
10h 47m
Tomorrow will be 2m 15s shorter.
Waxing Crescent, 7% of the Moon is Illuminated
Today
Waxing Crescent
Oct 30
First Quarter
Nov 6
Full
Nov 14
Last Quarter
Nov 22
New

Today's Extremes

State Highs State Lows

Community

WunderPhotos

Upload Photos

1,765,130 photos uploaded!

Nearby

Snow Depth

Station Depth Elevation
No new snow has been reported.

Earthquake Activity

City Distance Mag. Time & Date
No recent earthquake activity has been reported nearby.
Minimum magnitude displayed is 2.5.

Coastal Water Temperatures

Place Temperature
No Stations Reporting

Nearby Weather Stations